createdAt,value
2023-03-29T00:02:59.354Z,3.30
2023-03-29T00:08:04.376Z,3.03
2023-03-29T00:13:07.368Z,3.40
2023-03-29T00:18:10.525Z,2.95
2023-03-29T00:23:14.591Z,3.10
2023-03-29T00:28:19.138Z,3.15
2023-03-29T00:33:22.796Z,3.63
2023-03-29T00:38:27.510Z,3.45
2023-03-29T00:43:30.448Z,3.08
2023-03-29T00:48:33.367Z,2.80
2023-03-29T00:53:41.085Z,3.30
2023-03-29T00:58:51.855Z,3.10
2023-03-29T01:04:03.105Z,3.42
2023-03-29T01:09:10.803Z,3.08
2023-03-29T01:14:19.516Z,2.87
2023-03-29T01:19:28.365Z,3.25
2023-03-29T01:24:45.191Z,2.80
2023-03-29T01:29:54.004Z,2.67
2023-03-29T01:35:01.428Z,3.30
2023-03-29T01:40:06.328Z,3.40
2023-03-29T01:45:22.729Z,3.47
2023-03-29T01:50:37.286Z,3.15
2023-03-29T01:55:44.759Z,3.30
2023-03-29T02:00:53.909Z,2.93
2023-03-29T02:05:58.892Z,2.95
2023-03-29T02:11:04.579Z,2.95
2023-03-29T02:16:13.149Z,2.97
2023-03-29T02:21:21.894Z,2.42
2023-03-29T02:26:24.773Z,2.92
2023-03-29T02:31:33.239Z,2.40
2023-03-29T02:41:47.084Z,2.70
2023-03-29T02:46:56.654Z,3.08
2023-03-29T02:52:07.674Z,2.60
2023-03-29T02:57:11.383Z,2.55
2023-03-29T03:02:17.471Z,2.70
2023-03-29T03:07:20.976Z,2.80
2023-03-29T03:12:24.052Z,2.90
2023-03-29T03:17:28.261Z,2.60
2023-03-29T03:22:32.262Z,3.63
2023-03-29T03:27:34.987Z,3.13
2023-03-29T03:32:39.285Z,2.90
2023-03-29T03:38:08.553Z,3.47
2023-03-29T03:43:11.690Z,3.33
2023-03-29T03:48:16.938Z,3.60
2023-03-29T03:53:31.242Z,3.13
2023-03-29T03:58:49.039Z,3.40
2023-03-29T04:03:55.815Z,3.85
2023-03-29T04:09:00.133Z,3.95
2023-03-29T04:14:15.876Z,4.10
2023-03-29T04:19:35.285Z,4.43
2023-03-29T04:24:38.161Z,4.70
2023-03-29T04:30:00.540Z,4.90
2023-03-29T04:35:36.649Z,4.95
2023-03-29T04:40:39.814Z,5.72
2023-03-29T04:45:49.334Z,6.95
2023-03-29T04:51:11.641Z,7.20
2023-03-29T04:56:16.372Z,7.35
2023-03-29T05:06:50.184Z,8.30
2023-03-29T05:11:52.982Z,9.15
2023-03-29T05:16:57.338Z,7.93
2023-03-29T05:22:01.637Z,8.95
2023-03-29T05:27:04.910Z,9.45
2023-03-29T05:32:10.586Z,8.85
2023-03-29T05:37:15.507Z,9.10
2023-03-29T05:42:26.127Z,8.07
2023-03-29T05:47:32.697Z,8.90
2023-03-29T05:52:37.932Z,8.52
2023-03-29T05:57:41.419Z,8.63
2023-03-29T06:02:44.315Z,8.13
2023-03-29T06:07:49.791Z,7.95
2023-03-29T06:13:11.905Z,8.30
2023-03-29T06:18:15.258Z,7.32
2023-03-29T06:23:20.486Z,7.25
2023-03-29T06:28:24.133Z,6.95
2023-03-29T06:33:27.627Z,7.55
2023-03-29T06:38:41.611Z,8.13
2023-03-29T06:44:17.342Z,6.28
2023-03-29T06:49:31.668Z,6.00
2023-03-29T06:54:52.578Z,6.70
2023-03-29T06:59:55.612Z,5.70
2023-03-29T07:05:02.387Z,6.45
2023-03-29T07:10:12.827Z,5.73
2023-03-29T07:15:51.444Z,5.47
2023-03-29T07:21:13.774Z,4.95
2023-03-29T07:26:28.806Z,5.05
2023-03-29T07:31:36.281Z,4.40
2023-03-29T07:36:57.671Z,5.07
2023-03-29T07:42:01.923Z,4.68
2023-03-29T07:47:05.474Z,4.72
2023-03-29T07:52:09.268Z,3.97
2023-03-29T07:57:13.597Z,4.93
2023-03-29T08:02:20.961Z,4.97
2023-03-29T08:07:27.363Z,4.50
2023-03-29T08:12:34.038Z,3.60
2023-03-29T08:17:38.050Z,6.60
2023-03-29T08:22:41.999Z,4.22
2023-03-29T08:28:06.477Z,4.47
2023-03-29T08:33:19.740Z,4.20
2023-03-29T08:38:30.050Z,5.38
2023-03-29T08:43:52.684Z,4.30
2023-03-29T08:49:05.181Z,3.88
2023-03-29T08:54:14.429Z,4.70
2023-03-29T08:59:39.654Z,4.10
2023-03-29T09:04:45.912Z,4.53
2023-03-29T09:10:13.634Z,5.53
2023-03-29T09:15:25.261Z,4.60
2023-03-29T09:20:46.509Z,3.97
2023-03-29T09:26:42.051Z,5.10
2023-03-29T09:32:45.242Z,4.13
2023-03-29T09:39:17.068Z,4.50
2023-03-29T09:52:04.880Z,4.30
2023-03-29T09:57:54.780Z,7.10
2023-03-29T10:03:39.926Z,4.60
2023-03-29T10:09:36.072Z,4.70
2023-03-29T10:15:29.007Z,4.30
2023-03-29T10:20:48.093Z,4.18
2023-03-29T10:25:53.165Z,5.55
2023-03-29T10:30:58.266Z,4.68
2023-03-29T10:36:03.758Z,5.38
2023-03-29T10:41:12.074Z,4.78
2023-03-29T10:51:25.169Z,5.68
2023-03-29T10:56:40.078Z,5.25
2023-03-29T11:01:51.164Z,5.05
2023-03-29T11:07:10.891Z,5.70
2023-03-29T11:12:26.434Z,5.50
2023-03-29T11:17:44.638Z,5.32
2023-03-29T11:22:54.279Z,5.43
2023-03-29T11:28:07.578Z,5.50
2023-03-29T11:33:22.001Z,7.57
2023-03-29T11:38:32.356Z,8.65
2023-03-29T11:43:39.622Z,6.65
2023-03-29T11:48:50.310Z,5.78
2023-03-29T11:54:00.395Z,6.15
2023-03-29T11:59:11.461Z,7.13
2023-03-29T12:04:22.768Z,6.20
2023-03-29T12:09:32.520Z,6.75
2023-03-29T12:14:47.862Z,6.88
2023-03-29T12:20:01.586Z,10.23
2023-03-29T12:25:08.744Z,7.47
2023-03-29T12:30:36.982Z,7.35
2023-03-29T12:35:48.608Z,7.18
2023-03-29T12:41:16.775Z,7.60
2023-03-29T12:46:41.739Z,15.10
2023-03-29T12:52:49.404Z,7.00
2023-03-29T13:05:36.147Z,9.70
2023-03-29T13:10:42.439Z,8.93
2023-03-29T13:15:46.538Z,6.68
2023-03-29T13:20:59.852Z,7.00
2023-03-29T13:26:17.434Z,5.75
2023-03-29T13:31:30.871Z,6.22
2023-03-29T13:36:52.327Z,7.38
2023-03-29T13:42:07.495Z,5.90
2023-03-29T13:47:28.690Z,6.40
2023-03-29T13:52:39.215Z,7.32
2023-03-29T13:57:46.738Z,6.70
2023-03-29T14:02:52.866Z,6.70
2023-03-29T14:07:58.021Z,6.90
2023-03-29T14:13:03.934Z,6.25
2023-03-29T14:18:06.900Z,6.00
2023-03-29T14:23:15.616Z,5.88
2023-03-29T14:28:23.916Z,5.50
2023-03-29T14:40:21.058Z,6.00
2023-03-29T14:45:24.447Z,6.97
2023-03-29T14:50:31.008Z,7.32
2023-03-29T14:55:39.096Z,7.20
2023-03-29T15:00:43.454Z,8.30
2023-03-29T15:05:51.229Z,8.38
2023-03-29T15:10:55.977Z,7.88
2023-03-29T15:16:03.950Z,8.85
2023-03-29T15:21:09.124Z,10.23
2023-03-29T15:26:22.230Z,8.00
2023-03-29T16:16:29.529Z,11.18
2023-03-29T16:41:50.233Z,10.32
2023-03-29T16:46:57.423Z,9.45
2023-03-29T16:52:00.928Z,10.40
2023-03-29T16:57:07.107Z,12.32
2023-03-29T17:02:10.780Z,9.75
2023-03-29T17:07:13.652Z,10.93
2023-03-29T17:12:19.189Z,15.95
2023-03-29T17:17:22.029Z,11.00
2023-03-29T17:22:25.457Z,10.38
2023-03-29T17:27:29.692Z,10.13
2023-03-29T17:32:32.519Z,12.18
2023-03-29T17:37:37.880Z,12.38
2023-03-29T17:42:42.675Z,11.35
2023-03-29T17:47:45.535Z,13.45
2023-03-29T17:52:48.765Z,12.02
2023-03-29T17:57:53.000Z,11.57
2023-03-29T18:02:56.027Z,17.70
2023-03-29T18:07:58.853Z,11.07
2023-03-29T18:13:03.044Z,10.88
2023-03-29T18:18:06.279Z,11.32
2023-03-29T18:23:09.275Z,11.00
2023-03-29T18:28:18.693Z,10.68
2023-03-29T18:33:30.206Z,10.40
2023-03-29T18:38:35.086Z,11.13
2023-03-29T18:43:41.238Z,11.15
2023-03-29T18:48:44.209Z,11.60
2023-03-29T18:53:47.099Z,10.98
2023-03-29T18:58:51.410Z,11.38
2023-03-29T19:03:54.346Z,11.50
2023-03-29T19:08:58.669Z,11.30
2023-03-29T19:14:02.832Z,11.55
2023-03-29T19:19:06.958Z,11.73
2023-03-29T19:24:09.951Z,11.90
2023-03-29T19:29:14.848Z,12.48
2023-03-29T19:34:19.655Z,11.63
2023-03-29T19:39:23.033Z,12.38
2023-03-29T19:44:28.125Z,18.48
2023-03-29T19:49:31.022Z,19.00
2023-03-29T19:54:33.967Z,13.55
2023-03-29T19:59:40.678Z,13.23
2023-03-29T20:04:43.660Z,13.82
2023-03-29T20:09:46.490Z,12.77
2023-03-29T20:14:50.682Z,12.93
2023-03-29T20:19:54.136Z,13.27
2023-03-29T20:24:57.095Z,13.40
2023-03-29T20:30:01.245Z,14.57
2023-03-29T20:35:04.141Z,15.15
2023-03-29T20:40:08.386Z,14.32
2023-03-29T20:45:18.507Z,14.43
2023-03-29T20:50:26.157Z,14.27
2023-03-29T20:55:30.384Z,14.97
2023-03-29T21:00:35.656Z,15.63
2023-03-29T21:05:38.851Z,15.73
2023-03-29T21:10:42.447Z,15.30
2023-03-29T21:15:47.013Z,15.25
2023-03-29T21:20:49.764Z,15.75
2023-03-29T21:25:52.549Z,15.48
2023-03-29T21:30:57.268Z,15.60
2023-03-29T21:36:00.619Z,15.77
2023-03-29T21:41:03.723Z,16.77
2023-03-29T21:46:08.605Z,17.17
2023-03-29T21:51:11.584Z,17.67
2023-03-29T21:56:14.355Z,18.52
2023-03-29T22:01:18.542Z,17.38
2023-03-29T22:06:21.763Z,16.98
2023-03-29T22:11:25.606Z,16.73
2023-03-29T22:16:31.260Z,16.65
2023-03-29T22:21:37.251Z,16.20
2023-03-29T22:26:40.953Z,15.23
2023-03-29T22:31:45.139Z,15.82
2023-03-29T22:36:48.097Z,16.33
2023-03-29T22:41:50.885Z,16.42
2023-03-29T22:46:55.676Z,16.05
2023-03-29T22:51:59.623Z,17.80
2023-03-29T22:57:02.440Z,16.63
2023-03-29T23:02:06.725Z,17.38
2023-03-29T23:07:09.611Z,16.55
2023-03-29T23:12:12.338Z,16.40
2023-03-29T23:17:19.290Z,16.55
2023-03-29T23:22:22.591Z,17.13
2023-03-29T23:27:26.119Z,16.60
2023-03-29T23:32:30.279Z,16.05
2023-03-29T23:37:33.082Z,16.45
2023-03-29T23:42:36.961Z,15.82
2023-03-29T23:47:42.426Z,16.67
2023-03-29T23:52:46.562Z,15.85
2023-03-29T23:57:49.337Z,16.88
